createdAt,value
2017-05-19T07:34:34.183Z,998.08
2017-05-19T07:35:35.617Z,998.09
2017-05-19T07:36:37.046Z,998.08
2017-05-19T07:37:38.480Z,998.04
2017-05-19T07:38:39.915Z,998.06
2017-05-19T07:39:41.349Z,998.09
2017-05-19T07:40:42.790Z,998.04
2017-05-19T07:41:44.275Z,998.04
2017-05-19T07:42:45.710Z,998.06
2017-05-19T07:43:47.149Z,998.08
2017-05-19T07:44:48.589Z,998.10
2017-05-19T07:45:50.023Z,998.12
2017-05-19T07:46:51.452Z,998.10
2017-05-19T07:47:52.890Z,998.17
2017-05-19T07:48:54.331Z,998.15
2017-05-19T07:49:55.773Z,998.17
2017-05-19T07:50:57.208Z,998.15
2017-05-19T07:51:58.649Z,998.16
2017-05-19T07:53:00.092Z,998.17
2017-05-19T07:54:01.533Z,998.15
2017-05-19T07:55:02.967Z,998.16
2017-05-19T07:56:04.408Z,998.14
2017-05-19T07:57:05.855Z,998.15
2017-05-19T07:58:07.324Z,998.14
2017-05-19T07:59:08.750Z,998.16
2017-05-19T08:00:10.192Z,998.17
2017-05-19T08:01:11.630Z,998.16
2017-05-19T08:02:13.073Z,998.18
2017-05-19T08:03:14.510Z,998.18
2017-05-19T08:04:15.948Z,998.19
2017-05-19T08:05:17.380Z,998.17
2017-05-19T08:06:18.815Z,998.17
2017-05-19T08:07:20.253Z,998.18
2017-05-19T08:08:21.700Z,998.19
2017-05-19T08:09:23.153Z,998.16
2017-05-19T08:10:24.586Z,998.17
2017-05-19T08:11:26.017Z,998.15
2017-05-19T08:12:27.469Z,998.17
2017-05-19T08:13:28.907Z,998.16
2017-05-19T08:14:30.351Z,998.18
2017-05-19T08:15:31.784Z,998.15
2017-05-19T08:16:33.229Z,998.16
2017-05-19T08:17:34.673Z,998.13
2017-05-19T08:18:36.107Z,998.09
2017-05-19T08:19:37.553Z,998.15
2017-05-19T08:20:38.993Z,998.15
2017-05-19T08:21:40.426Z,998.17
2017-05-19T08:22:41.863Z,998.15
2017-05-19T08:23:43.305Z,998.21
2017-05-19T08:24:44.741Z,998.20
2017-05-19T08:25:46.175Z,998.20
2017-05-19T08:26:47.649Z,998.21
2017-05-19T08:27:49.095Z,998.18
2017-05-19T08:28:50.530Z,998.15
2017-05-19T08:29:52.007Z,998.13
2017-05-19T08:30:53.459Z,998.14
2017-05-19T08:31:54.897Z,998.13
2017-05-19T08:32:56.328Z,998.09
2017-05-19T08:33:57.793Z,998.11
2017-05-19T08:34:59.224Z,998.08
2017-05-19T08:36:00.667Z,998.07
2017-05-19T08:37:02.105Z,998.03
2017-05-19T08:38:03.548Z,998.04
2017-05-19T08:39:04.980Z,998.01
2017-05-19T08:40:06.415Z,997.99
2017-05-19T08:41:07.856Z,997.98
2017-05-19T08:42:09.293Z,998.02
2017-05-19T08:43:10.729Z,998.02
2017-05-19T08:44:12.165Z,997.99
2017-05-19T08:45:13.605Z,998.02
2017-05-19T08:46:15.044Z,998.02
2017-05-19T08:47:16.475Z,997.99
2017-05-19T08:48:17.919Z,998.02
2017-05-19T08:49:19.457Z,997.98
2017-05-19T08:50:20.888Z,997.98
2017-05-19T08:51:22.360Z,998.03
2017-05-19T08:52:23.795Z,998.04
2017-05-19T08:53:25.239Z,998.09
2017-05-19T08:54:26.670Z,998.11
2017-05-19T08:55:28.122Z,998.11
2017-05-19T08:56:29.563Z,998.08
2017-05-19T08:57:31.036Z,998.08
2017-05-19T08:58:32.474Z,998.11
2017-05-19T08:59:34.098Z,998.10
2017-05-19T09:00:35.534Z,998.08
2017-05-19T09:01:36.964Z,998.08
2017-05-19T09:02:38.413Z,998.09
2017-05-19T09:03:39.848Z,998.07
2017-05-19T09:04:41.294Z,998.10
2017-05-19T09:05:42.738Z,998.08
2017-05-19T09:06:44.173Z,998.08
2017-05-19T09:07:45.606Z,998.09
2017-05-19T09:08:47.038Z,998.04
2017-05-19T09:09:48.510Z,998.07
2017-05-19T09:10:49.946Z,998.06
2017-05-19T09:11:51.384Z,998.06
2017-05-19T09:12:52.819Z,998.04
2017-05-19T09:13:54.259Z,998.04
2017-05-19T09:14:55.685Z,998.07
2017-05-19T09:15:57.117Z,998.04
2017-05-19T09:16:58.556Z,998.05
2017-05-19T09:17:59.991Z,998.06
2017-05-19T09:19:01.425Z,998.04
2017-05-19T09:20:02.895Z,998.01
2017-05-19T09:21:04.340Z,998.00
2017-05-19T09:22:05.780Z,997.99
2017-05-19T09:23:07.219Z,998.03
2017-05-19T09:24:08.659Z,997.98
2017-05-19T09:25:10.100Z,997.97
2017-05-19T09:26:11.534Z,997.97
2017-05-19T09:27:12.970Z,997.99
2017-05-19T09:28:14.409Z,998.02
2017-05-19T09:29:15.845Z,998.06
2017-05-19T09:30:17.310Z,998.02
2017-05-19T09:31:18.733Z,998.02
2017-05-19T09:32:20.169Z,998.05
2017-05-19T09:33:21.602Z,998.06
2017-05-19T09:34:23.178Z,998.07
2017-05-19T09:35:25.288Z,998.10
2017-05-19T09:36:26.690Z,998.15
2017-05-19T09:37:28.125Z,998.12
2017-05-19T09:38:29.562Z,998.10
2017-05-19T09:39:30.990Z,998.09
2017-05-19T09:40:32.430Z,998.12
2017-05-19T09:41:33.858Z,998.07
2017-05-19T09:42:35.302Z,998.09
2017-05-19T09:43:36.768Z,998.07
2017-05-19T09:44:38.205Z,998.11
2017-05-19T09:45:39.636Z,998.08
2017-05-19T09:46:41.077Z,998.13
2017-05-19T09:47:42.509Z,998.14
2017-05-19T09:48:43.953Z,998.18
2017-05-19T09:49:45.397Z,998.18
2017-05-19T09:50:46.840Z,998.14
2017-05-19T09:51:48.262Z,998.17
2017-05-19T09:52:49.697Z,998.18
2017-05-19T09:53:51.140Z,998.15
2017-05-19T09:54:52.580Z,998.13
2017-05-19T09:55:54.004Z,998.12
2017-05-19T09:56:55.455Z,998.09
2017-05-19T09:57:56.884Z,998.10
2017-05-19T09:58:58.329Z,998.07
2017-05-19T09:59:59.785Z,998.05
2017-05-19T10:01:01.227Z,998.04
2017-05-19T10:02:02.673Z,997.99
2017-05-19T10:03:04.118Z,997.98
2017-05-19T10:04:05.559Z,997.94
2017-05-19T10:05:06.999Z,997.97
2017-05-19T10:06:08.436Z,998.01
2017-05-19T10:07:09.871Z,997.99
2017-05-19T10:08:11.305Z,997.98
2017-05-19T10:09:12.740Z,997.99
2017-05-19T10:10:14.175Z,998.02
2017-05-19T10:11:15.632Z,998.04
2017-05-19T10:12:17.067Z,998.04
2017-05-19T10:13:18.554Z,998.01
2017-05-19T10:14:19.989Z,998.03
2017-05-19T10:15:21.426Z,998.04
2017-05-19T10:16:22.859Z,998.04
2017-05-19T10:17:24.297Z,998.02
2017-05-19T10:18:25.735Z,998.04
2017-05-19T10:19:28.314Z,998.05
2017-05-19T10:20:29.752Z,998.02
2017-05-19T10:21:31.188Z,998.05
2017-05-19T10:22:32.624Z,998.03
2017-05-19T10:23:34.056Z,998.03
2017-05-19T10:24:35.486Z,998.12
2017-05-19T10:25:36.927Z,998.09
2017-05-19T10:26:38.365Z,998.11
2017-05-19T10:27:40.341Z,998.10
2017-05-19T10:28:41.781Z,998.10
2017-05-19T10:29:43.216Z,998.09
2017-05-19T10:30:44.650Z,998.13
2017-05-19T10:31:46.085Z,998.12
2017-05-19T10:32:47.516Z,998.14
2017-05-19T10:33:48.971Z,998.14
2017-05-19T10:34:50.403Z,998.13
2017-05-19T10:35:51.839Z,998.14
2017-05-19T10:36:53.279Z,998.14
2017-05-19T10:37:54.707Z,998.16
2017-05-19T10:38:56.142Z,998.17
2017-05-19T10:39:57.578Z,998.13
2017-05-19T10:40:59.015Z,998.21
2017-05-19T10:42:00.446Z,998.22
2017-05-19T10:43:01.877Z,998.24
2017-05-19T10:44:03.310Z,998.32
2017-05-19T10:45:04.736Z,998.34
2017-05-19T10:46:06.180Z,998.37
2017-05-19T10:47:07.614Z,998.44
2017-05-19T10:48:09.052Z,998.47
2017-05-19T10:49:10.482Z,998.45
2017-05-19T10:50:11.916Z,998.37
2017-05-19T10:51:13.342Z,998.44
2017-05-19T10:52:14.776Z,998.39
2017-05-19T10:53:16.221Z,998.45
2017-05-19T10:54:17.654Z,998.47
2017-05-19T10:55:19.088Z,998.48
2017-05-19T10:56:20.518Z,998.42
2017-05-19T10:57:21.951Z,998.43
2017-05-19T10:58:23.396Z,998.41
2017-05-19T10:59:24.832Z,998.41
2017-05-19T11:00:26.282Z,998.36
2017-05-19T11:01:27.713Z,998.36
2017-05-19T11:02:29.144Z,998.34
2017-05-19T11:03:30.582Z,998.39
2017-05-19T11:04:32.014Z,998.47
2017-05-19T11:05:33.450Z,998.41
2017-05-19T11:06:34.895Z,998.47
2017-05-19T11:07:36.327Z,998.51
2017-05-19T11:08:37.778Z,998.46
2017-05-19T11:09:39.221Z,998.53
2017-05-19T11:10:40.654Z,998.53
2017-05-19T11:11:42.089Z,998.52
2017-05-19T11:12:43.523Z,998.53
2017-05-19T11:13:44.956Z,998.51
2017-05-19T11:14:46.387Z,998.55
2017-05-19T11:15:47.818Z,998.55
2017-05-19T11:16:49.255Z,998.60
2017-05-19T11:17:50.691Z,998.62
2017-05-19T11:18:52.122Z,998.62
2017-05-19T11:19:53.588Z,998.66
2017-05-19T11:20:55.027Z,998.66
2017-05-19T11:21:56.465Z,998.66
2017-05-19T11:22:57.903Z,998.67
2017-05-19T11:23:59.375Z,998.67
2017-05-19T11:25:00.823Z,998.69
2017-05-19T11:26:02.258Z,998.68
2017-05-19T11:27:03.730Z,998.68
2017-05-19T11:28:05.168Z,998.72
2017-05-19T11:29:06.603Z,998.76
2017-05-19T11:30:08.044Z,998.77
2017-05-19T11:31:09.488Z,998.81
2017-05-19T11:32:10.923Z,998.81
2017-05-19T11:33:12.358Z,998.82
2017-05-19T11:34:13.796Z,998.78
2017-05-19T11:35:15.236Z,998.72
2017-05-19T11:36:16.679Z,998.68
2017-05-19T11:37:18.142Z,998.70
2017-05-19T11:38:19.580Z,998.71
2017-05-19T11:39:21.029Z,998.67
2017-05-19T11:40:22.458Z,998.74
2017-05-19T11:41:23.903Z,998.73
2017-05-19T11:42:25.375Z,998.79
2017-05-19T11:43:26.800Z,998.84
2017-05-19T11:44:28.241Z,998.88
2017-05-19T11:45:29.729Z,998.89
2017-05-19T11:46:31.159Z,998.90
2017-05-19T11:47:32.587Z,998.93
2017-05-19T11:48:34.035Z,998.98
2017-05-19T11:49:35.475Z,999.06
2017-05-19T11:50:36.911Z,999.11
2017-05-19T11:51:38.350Z,999.22
2017-05-19T11:52:39.796Z,999.25
2017-05-19T11:53:41.215Z,999.31
2017-05-19T11:54:42.650Z,999.38
2017-05-19T11:55:44.083Z,999.43
2017-05-19T11:56:45.594Z,999.37
2017-05-19T11:57:47.027Z,999.35
2017-05-19T11:58:48.479Z,999.38
2017-05-19T11:59:49.923Z,999.45
2017-05-19T12:00:51.380Z,999.38
2017-05-19T12:01:52.842Z,999.33
2017-05-19T12:02:54.274Z,999.34
2017-05-19T12:03:55.727Z,999.35
2017-05-19T12:04:57.158Z,999.31
2017-05-19T12:05:58.597Z,999.33
2017-05-19T12:07:00.030Z,999.32
2017-05-19T12:08:01.463Z,999.34
2017-05-19T12:09:02.900Z,999.34
2017-05-19T12:10:04.341Z,999.40
2017-05-19T12:11:05.784Z,999.44
2017-05-19T12:12:07.223Z,999.49
2017-05-19T12:13:08.658Z,999.51
2017-05-19T12:14:10.117Z,999.53
2017-05-19T12:15:11.572Z,999.51
2017-05-19T12:16:13.010Z,999.52
2017-05-19T12:17:14.445Z,999.55
2017-05-19T12:18:15.878Z,999.54
2017-05-19T12:19:17.333Z,999.56
2017-05-19T12:20:18.762Z,999.49
2017-05-19T12:21:20.197Z,999.58
2017-05-19T12:22:21.627Z,999.53
2017-05-19T12:23:23.065Z,999.57
2017-05-19T12:24:24.506Z,999.59
2017-05-19T12:25:26.015Z,999.56
2017-05-19T12:26:27.450Z,999.57
2017-05-19T12:27:28.884Z,999.58
2017-05-19T12:28:30.323Z,999.58
2017-05-19T12:29:31.850Z,999.63
2017-05-19T12:30:33.277Z,999.63
2017-05-19T12:31:34.708Z,999.68
2017-05-19T12:32:36.149Z,999.73
2017-05-19T12:33:37.585Z,999.81
2017-05-19T12:34:39.013Z,999.84
2017-05-19T12:35:40.468Z,999.97
2017-05-19T12:36:41.906Z,999.88
2017-05-19T12:37:43.340Z,999.93
2017-05-19T12:38:44.770Z,999.96
2017-05-19T12:39:46.228Z,999.96
2017-05-19T12:40:47.654Z,1000.02
2017-05-19T12:41:49.084Z,999.94
2017-05-19T12:42:50.523Z,999.99
2017-05-19T12:43:51.974Z,1000.08
2017-05-19T12:44:53.414Z,1000.12
2017-05-19T12:45:54.845Z,1000.15
2017-05-19T12:46:56.277Z,1000.19
2017-05-19T12:47:57.713Z,1000.20
2017-05-19T12:48:59.152Z,1000.23
2017-05-19T12:50:00.593Z,1000.18
2017-05-19T12:51:02.121Z,1000.15
2017-05-19T12:52:03.577Z,1000.10
2017-05-19T12:53:05.013Z,1000.10
2017-05-19T12:54:06.450Z,1000.08
2017-05-19T12:55:07.889Z,1000.16
2017-05-19T12:56:09.328Z,1000.21
2017-05-19T12:57:10.790Z,1000.22
2017-05-19T12:58:12.225Z,1000.36
2017-05-19T12:59:13.660Z,1000.45
2017-05-19T13:00:15.085Z,1000.42
2017-05-19T13:01:16.529Z,1000.44
2017-05-19T13:02:17.957Z,1000.47
2017-05-19T13:03:19.395Z,1000.46
2017-05-19T13:04:20.849Z,1000.46
2017-05-19T13:05:22.284Z,1000.53
2017-05-19T13:06:23.725Z,1000.58
2017-05-19T13:07:25.159Z,1000.69
2017-05-19T13:08:26.641Z,1000.79
2017-05-19T13:09:28.106Z,1000.83
2017-05-19T13:10:29.570Z,1000.83
2017-05-19T13:11:31.023Z,1000.85
2017-05-19T13:12:32.455Z,1000.85
2017-05-19T13:13:33.889Z,1000.86
2017-05-19T13:14:35.331Z,1000.85
2017-05-19T13:15:36.787Z,1000.87
2017-05-19T13:16:39.132Z,1000.82
2017-05-19T13:17:40.593Z,1000.86
2017-05-19T13:18:42.066Z,1000.83
2017-05-19T13:19:43.535Z,1000.87
2017-05-19T13:20:44.981Z,1000.91
2017-05-19T13:21:46.427Z,1000.92
2017-05-19T13:22:47.880Z,1000.87
2017-05-19T13:23:49.324Z,1000.86
2017-05-19T13:24:50.762Z,1000.90
2017-05-19T13:25:52.199Z,1000.84
2017-05-19T13:26:53.638Z,1000.85
2017-05-19T13:27:55.077Z,1000.87
2017-05-19T13:28:56.514Z,1000.86
2017-05-19T13:29:57.982Z,1000.89
2017-05-19T13:30:59.436Z,1000.92
2017-05-19T13:32:00.888Z,1000.87
2017-05-19T13:33:02.324Z,1000.96
2017-05-19T13:34:03.770Z,1000.93
2017-05-19T13:35:05.204Z,1000.91
2017-05-19T13:36:06.639Z,1000.92
2017-05-19T13:37:08.180Z,1000.92
2017-05-19T13:38:09.608Z,1000.90
2017-05-19T13:39:11.046Z,1000.91
2017-05-19T13:40:12.487Z,1000.90
2017-05-19T13:41:13.917Z,1000.86
2017-05-19T13:42:15.357Z,1000.91
2017-05-19T13:43:16.782Z,1000.94
2017-05-19T13:44:18.254Z,1000.93
2017-05-19T13:45:19.702Z,1000.93
2017-05-19T13:46:21.129Z,1000.95
2017-05-19T13:47:22.575Z,1000.95
2017-05-19T13:48:24.032Z,1000.99
2017-05-19T13:49:25.463Z,1001.02
2017-05-19T13:50:26.911Z,1001.01
2017-05-19T13:51:28.358Z,1001.04
2017-05-19T13:52:29.817Z,1001.03
2017-05-19T13:53:31.271Z,1001.03
2017-05-19T13:54:32.694Z,1000.98
2017-05-19T13:55:34.132Z,1000.96
2017-05-19T13:56:35.562Z,1000.98
2017-05-19T13:57:36.998Z,1000.98
2017-05-19T13:58:38.433Z,1000.99
2017-05-19T13:59:39.874Z,1001.00
2017-05-19T14:00:41.309Z,1001.04
2017-05-19T14:01:42.754Z,1001.03
2017-05-19T14:02:44.190Z,1001.11
2017-05-19T14:03:45.625Z,1001.08
2017-05-19T14:04:47.062Z,1001.12
2017-05-19T14:05:48.503Z,1001.10
2017-05-19T14:06:49.940Z,1001.13
2017-05-19T14:07:51.380Z,1001.15
2017-05-19T14:08:52.815Z,1001.13
2017-05-19T14:09:54.244Z,1001.11
2017-05-19T14:10:55.680Z,1001.12
2017-05-19T14:11:57.113Z,1001.12
2017-05-19T14:12:58.544Z,1001.14
2017-05-19T14:13:59.988Z,1001.08
2017-05-19T14:15:01.427Z,1001.12
2017-05-19T14:16:02.872Z,1001.14
2017-05-19T14:17:04.316Z,1001.14
2017-05-19T14:18:05.759Z,1001.12
2017-05-19T14:19:07.205Z,1001.14
2017-05-19T14:20:08.640Z,1001.12
2017-05-19T14:21:10.080Z,1001.13
2017-05-19T14:22:11.518Z,1001.13
2017-05-19T14:23:12.952Z,1001.11
2017-05-19T14:24:14.392Z,1001.15
2017-05-19T14:25:15.863Z,1001.24
2017-05-19T14:26:17.294Z,1001.22
2017-05-19T14:27:18.741Z,1001.34
2017-05-19T14:28:20.249Z,1001.38
2017-05-19T14:29:21.700Z,1001.47
2017-05-19T14:30:23.134Z,1001.57
2017-05-19T14:31:24.568Z,1001.61
2017-05-19T14:32:26.006Z,1001.67
2017-05-19T14:33:27.469Z,1001.63
2017-05-19T14:34:28.913Z,1001.64
2017-05-19T14:35:30.341Z,1001.69
2017-05-19T14:36:31.802Z,1001.73
2017-05-19T14:37:33.240Z,1001.74
2017-05-19T14:38:34.687Z,1001.77
2017-05-19T14:39:36.112Z,1001.73
2017-05-19T14:40:37.563Z,1001.81
2017-05-19T14:41:39.023Z,1001.82
2017-05-19T14:42:40.460Z,1001.88
2017-05-19T14:43:41.909Z,1001.90
2017-05-19T14:44:43.383Z,1001.88
2017-05-19T14:45:44.835Z,1001.88
2017-05-19T14:46:46.271Z,1001.87
2017-05-19T14:47:47.710Z,1001.94
2017-05-19T14:48:49.169Z,1001.98
2017-05-19T14:49:50.629Z,1002.03
2017-05-19T14:50:52.058Z,1002.00
2017-05-19T14:51:53.504Z,1001.92
2017-05-19T14:52:54.936Z,1001.87
2017-05-19T14:53:56.374Z,1001.92
2017-05-19T14:54:57.811Z,1001.76
2017-05-19T14:55:59.303Z,1001.78
2017-05-19T14:57:00.753Z,1001.78
2017-05-19T14:58:02.186Z,1001.85
2017-05-19T14:59:03.702Z,1001.95
2017-05-19T15:00:05.144Z,1002.02
2017-05-19T15:01:07.311Z,1002.10
2017-05-19T15:02:08.752Z,1002.16
2017-05-19T15:03:10.299Z,1002.18
2017-05-19T15:04:11.761Z,1002.17
2017-05-19T15:05:13.206Z,1002.19
2017-05-19T15:06:14.642Z,1002.21
2017-05-19T15:07:16.082Z,1002.20
2017-05-19T15:08:17.600Z,1002.26
2017-05-19T15:09:19.029Z,1002.27
2017-05-19T15:10:20.467Z,1002.26
2017-05-19T15:11:21.939Z,1002.34
2017-05-19T15:12:23.371Z,1002.33
2017-05-19T15:13:24.808Z,1002.33
2017-05-19T15:14:26.233Z,1002.25
2017-05-19T15:15:27.680Z,1002.31
2017-05-19T15:16:29.141Z,1002.25
2017-05-19T15:17:30.574Z,1002.23
2017-05-19T15:18:32.015Z,1002.23
2017-05-19T15:19:33.465Z,1002.18
2017-05-19T15:20:34.883Z,1002.14
2017-05-19T15:21:36.318Z,1002.17
2017-05-19T15:22:37.767Z,1002.22
2017-05-19T15:23:39.198Z,1002.25
2017-05-19T15:24:40.636Z,1002.28
2017-05-19T15:25:42.077Z,1002.32
2017-05-19T15:26:43.520Z,1002.38
2017-05-19T15:27:44.959Z,1002.39
2017-05-19T15:28:46.403Z,1002.36
2017-05-19T15:29:47.848Z,1002.41
2017-05-19T15:30:49.289Z,1002.41
2017-05-19T15:31:50.722Z,1002.42
2017-05-19T15:32:52.163Z,1002.42
2017-05-19T15:33:53.597Z,1002.38
2017-05-19T15:34:55.042Z,1002.37
2017-05-19T15:35:56.473Z,1002.42
2017-05-19T15:36:57.973Z,1002.41
2017-05-19T15:37:59.420Z,1002.48
2017-05-19T15:39:00.853Z,1002.47
2017-05-19T15:40:02.312Z,1002.48
2017-05-19T15:41:03.731Z,1002.49
2017-05-19T15:42:05.171Z,1002.53
2017-05-19T15:43:06.609Z,1002.54
2017-05-19T15:44:08.051Z,1002.51
2017-05-19T15:45:09.494Z,1002.56
2017-05-19T15:46:10.920Z,1002.52
2017-05-19T15:47:12.352Z,1002.57
2017-05-19T15:48:13.790Z,1002.54
2017-05-19T15:49:15.225Z,1002.57
2017-05-19T15:50:16.685Z,1002.62
2017-05-19T15:51:18.107Z,1002.68
2017-05-19T15:52:19.542Z,1002.65
2017-05-19T15:53:20.992Z,1002.66
2017-05-19T15:54:22.429Z,1002.65
2017-05-19T15:55:23.961Z,1002.64
2017-05-19T15:56:25.397Z,1002.67
2017-05-19T15:57:26.832Z,1002.72
2017-05-19T15:58:28.263Z,1002.71
2017-05-19T15:59:29.701Z,1002.71
2017-05-19T16:00:31.144Z,1002.67
2017-05-19T16:01:32.573Z,1002.67
2017-05-19T16:02:34.094Z,1002.65
2017-05-19T16:03:35.523Z,1002.72
2017-05-19T16:04:36.966Z,1002.72
2017-05-19T16:05:38.411Z,1002.79
2017-05-19T16:06:39.849Z,1002.82
2017-05-19T16:07:41.293Z,1002.83
2017-05-19T16:08:42.735Z,1002.87
2017-05-19T16:09:44.172Z,1002.89
2017-05-19T16:10:45.609Z,1002.88
2017-05-19T16:11:47.052Z,1002.90
2017-05-19T16:12:48.538Z,1002.93
2017-05-19T16:13:49.973Z,1002.95
2017-05-19T16:14:51.408Z,1002.94
2017-05-19T16:15:52.851Z,1002.95
2017-05-19T16:16:54.291Z,1002.91
2017-05-19T16:17:55.740Z,1002.93
2017-05-19T16:18:57.169Z,1002.92
2017-05-19T16:19:58.611Z,1002.93
2017-05-19T16:21:00.046Z,1002.90
2017-05-19T16:22:01.505Z,1002.94
2017-05-19T16:23:02.942Z,1002.94
2017-05-19T16:24:04.378Z,1002.96
2017-05-19T16:25:05.819Z,1003.01
2017-05-19T16:26:07.250Z,1003.01
2017-05-19T16:27:08.681Z,1003.03
2017-05-19T16:28:10.135Z,1003.08
2017-05-19T16:29:11.569Z,1003.07
2017-05-19T16:30:13.008Z,1003.06
2017-05-19T16:31:14.444Z,1003.06
2017-05-19T16:32:15.883Z,1003.02
2017-05-19T16:33:17.371Z,1003.02
2017-05-19T16:34:18.764Z,1003.05
2017-05-19T16:35:20.201Z,1003.08
2017-05-19T16:36:21.641Z,1003.07
2017-05-19T16:37:23.095Z,1003.10
2017-05-19T16:38:24.533Z,1003.10
2017-05-19T16:39:25.971Z,1003.10
2017-05-19T16:40:27.403Z,1003.09
2017-05-19T16:41:28.832Z,1003.07
2017-05-19T16:42:30.273Z,1003.08
2017-05-19T16:43:31.709Z,1003.07
2017-05-19T16:44:33.145Z,1003.07
2017-05-19T16:45:34.581Z,1003.11
2017-05-19T16:46:36.020Z,1003.12
2017-05-19T16:47:37.496Z,1003.20
2017-05-19T16:48:38.996Z,1003.15
2017-05-19T16:49:40.442Z,1003.19
2017-05-19T16:50:41.917Z,1003.17
2017-05-19T16:51:43.363Z,1003.14
2017-05-19T16:52:44.797Z,1003.14
2017-05-19T16:53:46.251Z,1003.14
2017-05-19T16:54:47.689Z,1003.15
2017-05-19T16:55:49.124Z,1003.12
2017-05-19T16:56:50.560Z,1003.09
2017-05-19T16:57:51.990Z,1003.07
2017-05-19T16:58:53.434Z,1003.05
2017-05-19T16:59:54.874Z,1003.09
2017-05-19T17:00:56.326Z,1003.13
2017-05-19T17:01:57.760Z,1003.16
2017-05-19T17:02:59.193Z,1003.30
2017-05-19T17:04:00.623Z,1003.29
2017-05-19T17:05:02.061Z,1003.31
2017-05-19T17:06:03.512Z,1003.32
2017-05-19T17:07:04.951Z,1003.32
2017-05-19T17:08:06.394Z,1003.31
2017-05-19T17:09:07.834Z,1003.32
2017-05-19T17:10:09.263Z,1003.31
2017-05-19T17:11:10.714Z,1003.37
2017-05-19T17:12:12.168Z,1003.30
2017-05-19T17:13:13.654Z,1003.28
2017-05-19T17:14:15.092Z,1003.23
2017-05-19T17:15:16.526Z,1003.26
2017-05-19T17:16:18.030Z,1003.24
2017-05-19T17:17:19.457Z,1003.25
2017-05-19T17:18:20.889Z,1003.26
2017-05-19T17:19:22.330Z,1003.27
2017-05-19T17:20:23.860Z,1003.23
2017-05-19T17:21:25.291Z,1003.18
2017-05-19T17:22:26.770Z,1003.21
2017-05-19T17:23:28.228Z,1003.15
2017-05-19T17:24:29.663Z,1003.21
2017-05-19T17:25:31.104Z,1003.25
2017-05-19T17:26:32.544Z,1003.30
2017-05-19T17:27:33.970Z,1003.35
2017-05-19T17:28:35.412Z,1003.32
2017-05-19T17:29:36.839Z,1003.34
2017-05-19T17:30:38.288Z,1003.38
2017-05-19T17:31:39.728Z,1003.33
2017-05-19T17:32:41.161Z,1003.32
2017-05-19T17:33:42.612Z,1003.29
2017-05-19T17:34:44.041Z,1003.29
2017-05-19T17:35:45.507Z,1003.30
2017-05-19T17:36:46.949Z,1003.31
2017-05-19T17:37:48.406Z,1003.30
2017-05-19T17:38:49.844Z,1003.36
2017-05-19T17:39:51.274Z,1003.40
2017-05-19T17:40:52.709Z,1003.44
2017-05-19T17:41:54.152Z,1003.45
2017-05-19T17:42:55.590Z,1003.53
2017-05-19T17:43:57.022Z,1003.51
2017-05-19T17:44:58.457Z,1003.56
2017-05-19T17:45:59.891Z,1003.58
2017-05-19T17:47:01.343Z,1003.57
2017-05-19T17:48:02.790Z,1003.62
2017-05-19T17:49:04.224Z,1003.62
2017-05-19T17:50:05.656Z,1003.70
2017-05-19T17:51:07.114Z,1003.80
2017-05-19T17:52:08.594Z,1003.75
2017-05-19T17:53:09.994Z,1003.83
2017-05-19T17:54:11.435Z,1003.86
2017-05-19T17:55:12.871Z,1003.91
2017-05-19T17:56:14.303Z,1003.94
2017-05-19T17:57:15.741Z,1003.95
2017-05-19T17:58:17.178Z,1003.90
2017-05-19T17:59:18.616Z,1003.93
2017-05-19T18:00:20.105Z,1003.92
2017-05-19T18:01:21.535Z,1003.95
2017-05-19T18:02:22.981Z,1004.01
2017-05-19T18:03:24.431Z,1004.12
2017-05-19T18:04:25.879Z,1004.09
2017-05-19T18:05:27.319Z,1004.13
2017-05-19T18:06:28.759Z,1004.10
2017-05-19T18:07:30.214Z,1004.13
2017-05-19T18:08:31.653Z,1004.18
2017-05-19T18:09:33.110Z,1004.16
2017-05-19T18:10:34.561Z,1004.30
2017-05-19T18:11:35.978Z,1004.21
2017-05-19T18:12:37.419Z,1004.21
2017-05-19T18:13:38.859Z,1004.27
2017-05-19T18:14:40.290Z,1004.27
2017-05-19T18:15:41.751Z,1004.27
2017-05-19T18:16:43.196Z,1004.28
2017-05-19T18:17:44.630Z,1004.32
2017-05-19T18:18:46.122Z,1004.31
2017-05-19T18:19:47.560Z,1004.37
2017-05-19T18:20:49.004Z,1004.40
2017-05-19T18:21:50.455Z,1004.43
2017-05-19T18:22:51.938Z,1004.44
2017-05-19T18:23:53.368Z,1004.42
2017-05-19T18:24:54.820Z,1004.45
2017-05-19T18:25:56.256Z,1004.51
2017-05-19T18:26:57.693Z,1004.54
2017-05-19T18:27:59.147Z,1004.52
2017-05-19T18:29:00.582Z,1004.59
2017-05-19T18:30:02.041Z,1004.60
2017-05-19T18:31:03.479Z,1004.60
2017-05-19T18:32:05.564Z,1004.58
2017-05-19T18:33:07.004Z,1004.59
2017-05-19T18:34:08.447Z,1004.57
2017-05-19T18:35:09.921Z,1004.51
2017-05-19T18:36:11.364Z,1004.54
2017-05-19T18:37:12.798Z,1004.54
2017-05-19T18:38:14.245Z,1004.57
2017-05-19T18:39:15.675Z,1004.56
2017-05-19T18:40:17.117Z,1004.67
2017-05-19T18:41:18.566Z,1004.61
2017-05-19T18:42:19.986Z,1004.62
2017-05-19T18:43:21.434Z,1004.64
2017-05-19T18:44:22.876Z,1004.61
2017-05-19T18:45:24.318Z,1004.62
2017-05-19T18:46:25.754Z,1004.62
2017-05-19T18:47:27.194Z,1004.62
2017-05-19T18:48:28.636Z,1004.62
2017-05-19T18:49:30.080Z,1004.57
2017-05-19T18:50:32.474Z,1004.54
2017-05-19T18:51:33.912Z,1004.54
2017-05-19T18:52:35.349Z,1004.58
2017-05-19T18:53:36.783Z,1004.55
2017-05-19T18:54:38.218Z,1004.56
2017-05-19T18:55:39.648Z,1004.50
2017-05-19T18:56:41.099Z,1004.54
2017-05-19T18:57:42.540Z,1004.53
2017-05-19T18:58:43.980Z,1004.56
2017-05-19T18:59:45.416Z,1004.55
2017-05-19T19:01:48.273Z,1004.54
2017-05-19T19:02:49.762Z,1004.58
2017-05-19T19:03:51.231Z,1004.58
2017-05-19T19:04:52.671Z,1004.60
2017-05-19T19:05:54.117Z,1004.55
2017-05-19T19:06:55.557Z,1004.53
2017-05-19T19:07:56.990Z,1004.52
2017-05-19T19:08:58.433Z,1004.51
2017-05-19T19:09:59.870Z,1004.52
2017-05-19T19:11:01.307Z,1004.48
2017-05-19T19:12:02.742Z,1004.47
2017-05-19T19:13:04.171Z,1004.49
2017-05-19T19:14:05.627Z,1004.52
2017-05-19T19:15:07.267Z,1004.52
2017-05-19T19:16:08.707Z,1004.54
2017-05-19T19:17:10.157Z,1004.55
2017-05-19T19:18:11.586Z,1004.49
2017-05-19T19:19:13.025Z,1004.53
2017-05-19T19:20:14.477Z,1004.47
2017-05-19T19:21:15.916Z,1004.50
2017-05-19T19:22:17.351Z,1004.49
2017-05-19T19:23:18.943Z,1004.53
2017-05-19T19:24:20.411Z,1004.55
2017-05-19T19:25:21.853Z,1004.55
2017-05-19T19:26:23.296Z,1004.60
2017-05-19T19:27:24.732Z,1004.59
2017-05-19T19:28:26.178Z,1004.65
2017-05-19T19:29:27.621Z,1004.68
2017-05-19T19:30:29.963Z,1004.72
2017-05-19T19:31:31.399Z,1004.71
2017-05-19T19:32:32.837Z,1004.75
2017-05-19T19:33:34.384Z,1004.77
2017-05-19T19:34:36.561Z,1004.81
2017-05-19T19:35:37.996Z,1004.83
2017-05-19T19:36:39.439Z,1004.86
2017-05-19T19:37:40.897Z,1004.85
2017-05-19T19:38:42.341Z,1004.90
2017-05-19T19:39:44.349Z,1004.91
2017-05-19T19:40:45.886Z,1004.94
2017-05-19T19:41:47.340Z,1004.97
2017-05-19T19:42:48.786Z,1005.04
2017-05-19T19:43:50.249Z,1005.07
2017-05-19T19:44:51.696Z,1005.06
2017-05-19T19:45:53.130Z,1005.11
2017-05-19T19:46:54.591Z,1005.11
2017-05-19T19:47:56.046Z,1005.11
2017-05-19T19:48:57.480Z,1005.11
2017-05-19T19:49:58.919Z,1005.15
2017-05-19T19:51:00.361Z,1005.19
2017-05-19T19:52:01.809Z,1005.23
2017-05-19T19:53:03.252Z,1005.24
2017-05-19T19:54:04.742Z,1005.26
2017-05-19T19:55:06.137Z,1005.28
2017-05-19T19:56:07.581Z,1005.32
2017-05-19T19:57:09.014Z,1005.29
2017-05-19T19:58:10.448Z,1005.32
2017-05-19T19:59:11.891Z,1005.35
2017-05-19T20:00:13.317Z,1005.43
2017-05-19T20:01:14.756Z,1005.42
2017-05-19T20:02:16.191Z,1005.45
2017-05-19T20:03:17.626Z,1005.49
2017-05-19T20:04:19.077Z,1005.51
2017-05-19T20:05:20.523Z,1005.51
2017-05-19T20:06:21.954Z,1005.58
2017-05-19T20:07:23.409Z,1005.55